Pagina principale
METAR-TAF:

METAR-TAF

Aeroporti :

Valence, Francia

latitudine: 44-54-58N, longitudine: 4-58-06E, altezza: 160 m

Osservazione

Il bollettino è stato emesso 10 minuti fa, alle 08:30 UTC
Vento 3 kt da sud-est, variando fra est e sud
Temperature 1°C
Umidità 86%
Pressione 1016 hPa
Visibilità 10 km o più
nessuna nube inferiore a 1500 m e nessun cumulonembo

METAR: LFLU 110830Z AUTO 13003KT 100V180 CAVOK 01/M01 Q1016

Ora: 09:40 (08:40 UTC)


TAF: mancante

Osservazioni e previsioni meteorologiche di più di 4000 aeroporti (messaggi METAR e TAF).

Le stazioni disponibili sono rappresentate dai dischi gialli e rossi sulla carta.

Puntare il mouse per vedere il nome della stazione.

Clicca sopra per visualizzare le osservazioni e previsioni meteorologiche.

Per cambiare la mappa : fare clic sui pulsanti verdi con una croce nera per ingrandire, il pulsante verde con un trattino per diminuire, o sulla freccia verde per le mappe adiacenti.


METAR-TAF: